createdAt,value
2022-08-09T00:00:34.081Z,1021.10
2022-08-09T00:01:43.118Z,1021.11
2022-08-09T00:02:34.662Z,1021.13
2022-08-09T00:04:05.672Z,1021.11
2022-08-09T00:04:35.558Z,1021.11
2022-08-09T00:06:15.639Z,1021.07
2022-08-09T00:06:34.096Z,1021.10
2022-08-09T00:07:44.238Z,1021.05
2022-08-09T00:08:34.097Z,1021.11
2022-08-09T00:09:34.108Z,1021.04
2022-08-09T00:10:34.107Z,1021.10
2022-08-09T00:12:01.549Z,1021.08
2022-08-09T00:12:34.558Z,1021.11
2022-08-09T00:13:34.109Z,1021.06
2022-08-09T00:14:38.156Z,1021.11
2022-08-09T00:15:57.600Z,1021.08
2022-08-09T00:16:36.637Z,1021.08
2022-08-09T00:18:05.150Z,1021.05
2022-08-09T00:18:35.869Z,1021.09
2022-08-09T00:19:34.248Z,1021.06
2022-08-09T00:20:34.258Z,1021.09
2022-08-09T00:21:34.135Z,1021.06
2022-08-09T00:22:36.214Z,1021.07
2022-08-09T00:23:55.258Z,1021.08
2022-08-09T00:24:34.165Z,1021.11
2022-08-09T00:25:34.154Z,1021.07
2022-08-09T00:26:34.143Z,1021.08
2022-08-09T00:27:36.303Z,1021.08
2022-08-09T00:28:34.561Z,1021.06
2022-08-09T00:29:39.613Z,1021.06
2022-08-09T00:30:34.146Z,1021.06
2022-08-09T00:31:59.028Z,1021.06
2022-08-09T00:32:34.211Z,1021.11
2022-08-09T00:33:51.036Z,1021.08
2022-08-09T00:34:34.161Z,1021.09
2022-08-09T00:35:43.354Z,1021.08
2022-08-09T00:36:34.169Z,1021.06
2022-08-09T00:37:34.176Z,1021.04
2022-08-09T00:38:34.175Z,1021.07
2022-08-09T00:40:14.203Z,1021.02
2022-08-09T00:40:34.288Z,1021.04
2022-08-09T00:44:13.074Z,1021.03
2022-08-09T00:44:14.658Z,1021.07
2022-08-09T00:44:16.717Z,1021.07
2022-08-09T00:44:34.575Z,1021.03
2022-08-09T00:45:34.634Z,1021.00
2022-08-09T00:46:55.515Z,1021.04
2022-08-09T00:47:39.626Z,1021.06
2022-08-09T00:48:34.198Z,1021.07
2022-08-09T00:49:34.196Z,1021.02
2022-08-09T00:50:34.202Z,1021.07
2022-08-09T00:51:34.200Z,1021.08
2022-08-09T00:52:34.521Z,1021.08
2022-08-09T00:53:34.219Z,1021.08
2022-08-09T00:54:36.133Z,1021.12
2022-08-09T00:56:03.941Z,1021.09
2022-08-09T00:56:34.236Z,1021.06
2022-08-09T00:57:35.821Z,1021.08
2022-08-09T00:58:34.219Z,1021.06
2022-08-09T00:59:41.621Z,1021.09
2022-08-09T01:00:35.241Z,1021.10
2022-08-09T01:01:44.950Z,1021.05
2022-08-09T01:02:34.415Z,1021.04
2022-08-09T01:03:40.716Z,1021.03
2022-08-09T01:04:34.230Z,1021.06
2022-08-09T01:05:53.341Z,1021.07
2022-08-09T01:06:53.535Z,1021.07
2022-08-09T01:07:37.740Z,1021.05
2022-08-09T01:08:34.238Z,1021.02
2022-08-09T01:09:36.590Z,1021.02
2022-08-09T01:10:34.239Z,1021.00
2022-08-09T01:11:34.247Z,1021.01
2022-08-09T01:12:34.332Z,1021.04
2022-08-09T01:13:53.316Z,1021.02
2022-08-09T01:14:34.283Z,1021.03
2022-08-09T01:15:34.274Z,1021.00
2022-08-09T01:16:35.179Z,1020.99
2022-08-09T01:17:34.411Z,1021.05
2022-08-09T01:18:34.271Z,1021.01
2022-08-09T01:19:42.989Z,1021.01
2022-08-09T01:20:34.273Z,1021.02
2022-08-09T01:21:44.797Z,1021.02
2022-08-09T01:22:34.763Z,1021.02
2022-08-09T01:24:01.902Z,1021.06
2022-08-09T01:24:34.276Z,1021.05
2022-08-09T01:25:41.751Z,1021.12
2022-08-09T01:26:34.280Z,1021.05
2022-08-09T01:27:34.282Z,1021.08
2022-08-09T01:28:34.290Z,1021.05
2022-08-09T01:29:41.089Z,1021.00
2022-08-09T01:30:51.302Z,1021.05
2022-08-09T01:32:34.788Z,1021.02
2022-08-09T01:32:44.118Z,1021.06
2022-08-09T01:33:34.307Z,1021.01
2022-08-09T01:34:34.309Z,1021.02
2022-08-09T01:35:38.538Z,1020.98
2022-08-09T01:36:34.300Z,1021.03
2022-08-09T01:38:06.303Z,1021.01
2022-08-09T01:38:34.364Z,1020.99
2022-08-09T01:39:35.754Z,1021.04
2022-08-09T01:40:34.322Z,1021.02
2022-08-09T01:41:34.315Z,1021.06
2022-08-09T01:42:34.442Z,1021.04
2022-08-09T01:43:50.147Z,1021.03
2022-08-09T01:44:34.319Z,1021.08
2022-08-09T01:45:34.321Z,1021.09
2022-08-09T01:46:34.328Z,1021.11
2022-08-09T01:47:34.335Z,1021.08
2022-08-09T01:48:34.341Z,1021.07
2022-08-09T01:49:39.266Z,1021.11
2022-08-09T01:50:37.165Z,1021.12
2022-08-09T01:51:34.336Z,1021.13
2022-08-09T01:52:34.342Z,1021.11
2022-08-09T01:53:41.840Z,1021.14
2022-08-09T01:54:34.365Z,1021.12
2022-08-09T01:57:17.087Z,1021.12
2022-08-09T01:58:17.071Z,1021.07
2022-08-09T02:00:35.493Z,1021.08
2022-08-09T02:01:21.437Z,1021.09
2022-08-09T02:03:25.066Z,1021.11
2022-08-09T02:04:25.053Z,1021.10
2022-08-09T02:06:29.070Z,1021.04
2022-08-09T02:08:40.977Z,1021.04
2022-08-09T02:09:41.718Z,1021.07
2022-08-09T02:10:33.070Z,1021.08
2022-08-09T02:12:37.357Z,1021.09
2022-08-09T02:13:37.503Z,1021.04
2022-08-09T02:15:50.081Z,1021.05
2022-08-09T02:17:00.157Z,1021.03
2022-08-09T02:18:47.991Z,1021.02
2022-08-09T02:19:45.095Z,1021.06
2022-08-09T02:21:49.064Z,1021.05
2022-08-09T02:22:49.042Z,1021.05
2022-08-09T02:24:53.072Z,1021.05
2022-08-09T02:25:55.918Z,1021.08
2022-08-09T02:28:00.435Z,1021.09
2022-08-09T02:28:57.061Z,1021.07
2022-08-09T02:30:49.997Z,1021.14
2022-08-09T02:31:50.001Z,1021.14
2022-08-09T02:34:07.298Z,1021.16
2022-08-09T02:34:55.894Z,1021.16
2022-08-09T02:36:57.995Z,1021.23
2022-08-09T02:37:57.992Z,1021.20
2022-08-09T02:40:03.171Z,1021.17
2022-08-09T02:41:01.968Z,1021.14
2022-08-09T02:43:05.952Z,1021.16
2022-08-09T02:44:10.429Z,1021.15
2022-08-09T02:46:10.032Z,1021.13
2022-08-09T02:47:10.114Z,1021.12
2022-08-09T02:49:38.332Z,1021.13
2022-08-09T02:51:18.216Z,1021.17
2022-08-09T02:52:18.380Z,1021.19
2022-08-09T02:54:22.236Z,1021.14
2022-08-09T02:55:22.343Z,1021.15
2022-08-09T02:57:26.791Z,1021.17
2022-08-09T02:58:37.105Z,1021.16
2022-08-09T03:00:25.189Z,1021.13
2022-08-09T03:01:21.844Z,1021.14
2022-08-09T03:03:37.154Z,1021.13
2022-08-09T03:04:28.770Z,1021.13
2022-08-09T03:06:27.371Z,1021.13
2022-08-09T03:07:27.180Z,1021.16
2022-08-09T03:09:33.631Z,1021.14
2022-08-09T03:10:31.281Z,1021.18
2022-08-09T03:12:35.918Z,1021.22
2022-08-09T03:13:43.842Z,1021.24
2022-08-09T03:15:40.379Z,1021.24
2022-08-09T03:16:44.805Z,1021.20
2022-08-09T03:18:43.458Z,1021.18
2022-08-09T03:19:59.454Z,1021.18
2022-08-09T03:21:50.751Z,1021.21
2022-08-09T03:22:58.272Z,1021.21
2022-08-09T03:24:52.414Z,1021.19
2022-08-09T03:25:56.994Z,1021.21
2022-08-09T03:27:55.652Z,1021.24
2022-08-09T03:28:55.434Z,1021.24
2022-08-09T03:30:49.084Z,1021.28
2022-08-09T03:31:59.845Z,1021.24
2022-08-09T03:32:48.351Z,1021.21
2022-08-09T03:33:54.024Z,1021.24
2022-08-09T03:34:48.355Z,1021.26
2022-08-09T03:36:13.348Z,1021.21
2022-08-09T03:36:58.479Z,1021.19
2022-08-09T03:37:55.177Z,1021.22
2022-08-09T03:38:48.371Z,1021.25
2022-08-09T03:39:48.500Z,1021.27
2022-08-09T03:40:48.389Z,1021.28
2022-08-09T03:41:48.809Z,1021.23
2022-08-09T03:42:48.372Z,1021.25
2022-08-09T03:43:51.867Z,1021.24
2022-08-09T03:44:48.407Z,1021.25
2022-08-09T03:46:04.623Z,1021.28
2022-08-09T03:46:48.376Z,1021.29
2022-08-09T03:47:48.377Z,1021.30
2022-08-09T03:48:51.613Z,1021.28
2022-08-09T03:49:58.171Z,1021.32
2022-08-09T03:50:48.557Z,1021.35
2022-08-09T03:51:58.775Z,1021.32
2022-08-09T03:52:48.392Z,1021.32
2022-08-09T03:53:48.387Z,1021.32
2022-08-09T03:54:48.397Z,1021.34
2022-08-09T03:55:48.421Z,1021.34
2022-08-09T03:56:48.399Z,1021.33
2022-08-09T03:58:03.232Z,1021.33
2022-08-09T03:58:48.402Z,1021.32
2022-08-09T03:59:53.371Z,1021.37
2022-08-09T04:00:48.479Z,1021.34
2022-08-09T04:01:48.410Z,1021.32
2022-08-09T04:02:48.411Z,1021.36
2022-08-09T04:04:01.089Z,1021.38
2022-08-09T04:04:48.434Z,1021.39
2022-08-09T04:05:48.424Z,1021.35
2022-08-09T04:06:49.327Z,1021.38
2022-08-09T04:07:53.749Z,1021.41
2022-08-09T04:08:48.448Z,1021.44
2022-08-09T04:09:52.916Z,1021.42
2022-08-09T04:10:49.818Z,1021.47
2022-08-09T04:11:48.433Z,1021.47
2022-08-09T04:12:49.873Z,1021.50
2022-08-09T04:14:53.998Z,1021.48
2022-08-09T04:15:00.533Z,1021.46
2022-08-09T04:16:19.883Z,1021.51
2022-08-09T04:16:48.442Z,1021.54
2022-08-09T04:17:48.438Z,1021.54
2022-08-09T04:18:49.259Z,1021.49
2022-08-09T04:19:51.499Z,1021.51
2022-08-09T04:20:48.449Z,1021.51
2022-08-09T04:21:48.445Z,1021.53
2022-08-09T04:22:48.451Z,1021.51
2022-08-09T04:23:52.437Z,1021.56
2022-08-09T04:24:48.459Z,1021.57
2022-08-09T04:25:52.226Z,1021.58
2022-08-09T04:26:48.470Z,1021.57
2022-08-09T04:27:49.304Z,1021.63
2022-08-09T04:28:48.462Z,1021.58
2022-08-09T04:29:49.819Z,1021.61
2022-08-09T04:30:48.468Z,1021.66
2022-08-09T04:31:48.469Z,1021.65
2022-08-09T04:32:48.475Z,1021.62
2022-08-09T04:33:56.598Z,1021.63
2022-08-09T04:34:54.417Z,1021.65
2022-08-09T04:35:48.471Z,1021.60
2022-08-09T04:36:50.210Z,1021.61
2022-08-09T04:37:48.485Z,1021.64
2022-08-09T04:38:48.478Z,1021.63
2022-08-09T04:39:49.210Z,1021.67
2022-08-09T04:40:56.235Z,1021.68
2022-08-09T04:41:48.485Z,1021.66
2022-08-09T04:42:48.742Z,1021.65
2022-08-09T04:44:05.329Z,1021.64
2022-08-09T04:44:49.068Z,1021.67
2022-08-09T04:45:53.690Z,1021.69
2022-08-09T04:46:58.384Z,1021.70
2022-08-09T04:48:00.146Z,1021.65
2022-08-09T04:48:50.308Z,1021.66
2022-08-09T04:49:54.373Z,1021.65
2022-08-09T04:50:50.075Z,1021.68
2022-08-09T04:51:48.510Z,1021.68
2022-08-09T04:52:48.521Z,1021.74
2022-08-09T04:53:53.847Z,1021.70
2022-08-09T04:54:48.518Z,1021.74
2022-08-09T04:55:58.028Z,1021.74
2022-08-09T04:56:48.514Z,1021.81
2022-08-09T04:57:58.428Z,1021.81
2022-08-09T04:58:48.519Z,1021.82
2022-08-09T04:59:50.337Z,1021.81
2022-08-09T05:00:48.564Z,1021.82
2022-08-09T05:01:48.543Z,1021.84
2022-08-09T05:02:52.709Z,1021.82
2022-08-09T05:03:48.623Z,1021.82
2022-08-09T05:04:48.528Z,1021.85
2022-08-09T05:05:51.941Z,1021.85
2022-08-09T05:06:50.547Z,1021.84
2022-08-09T05:07:48.533Z,1021.86
2022-08-09T05:08:48.550Z,1021.83
2022-08-09T05:09:49.700Z,1021.90
2022-08-09T05:10:48.544Z,1021.88
2022-08-09T05:11:48.561Z,1021.91
2022-08-09T05:12:48.547Z,1021.90
2022-08-09T05:13:48.583Z,1021.95
2022-08-09T05:14:48.553Z,1021.88
2022-08-09T05:15:52.398Z,1021.81
2022-08-09T05:16:58.863Z,1021.91
2022-08-09T05:18:50.601Z,1021.92
2022-08-09T05:18:59.126Z,1021.95
2022-08-09T05:19:48.569Z,1021.93
2022-08-09T05:20:48.566Z,1021.92
2022-08-09T05:21:55.257Z,1021.92
2022-08-09T05:23:53.573Z,1021.95
2022-08-09T05:23:54.966Z,1021.95
2022-08-09T05:24:48.576Z,1021.95
2022-08-09T05:25:50.823Z,1022.00
2022-08-09T05:26:48.575Z,1022.01
2022-08-09T05:27:48.585Z,1022.02
2022-08-09T05:28:48.597Z,1022.02
2022-08-09T05:29:48.586Z,1021.99
2022-08-09T05:30:48.580Z,1022.00
2022-08-09T05:31:56.879Z,1022.01
2022-08-09T05:32:50.784Z,1022.00
2022-08-09T05:33:48.590Z,1022.04
2022-08-09T05:34:48.588Z,1022.02
2022-08-09T05:35:49.998Z,1022.01
2022-08-09T05:36:48.606Z,1022.04
2022-08-09T05:37:50.093Z,1022.03
2022-08-09T05:38:48.619Z,1022.06
2022-08-09T05:39:48.652Z,1022.08
2022-08-09T05:40:50.648Z,1022.07
2022-08-09T05:41:48.615Z,1022.09
2022-08-09T05:42:48.608Z,1022.13
2022-08-09T05:43:49.067Z,1022.12
2022-08-09T05:44:50.706Z,1022.13
2022-08-09T05:45:55.806Z,1022.16
2022-08-09T05:46:48.620Z,1022.09
2022-08-09T05:47:52.345Z,1022.12
2022-08-09T05:48:48.787Z,1022.16
2022-08-09T05:50:25.038Z,1022.21
2022-08-09T05:51:10.176Z,1022.16
2022-08-09T05:51:48.631Z,1022.23
2022-08-09T05:52:53.741Z,1022.24
2022-08-09T05:53:51.672Z,1022.32
2022-08-09T05:54:49.153Z,1022.27
2022-08-09T05:55:50.639Z,1022.24
2022-08-09T05:56:54.463Z,1022.24
2022-08-09T05:57:50.767Z,1022.23
2022-08-09T05:58:48.651Z,1022.22
2022-08-09T05:59:48.673Z,1022.24
2022-08-09T06:00:48.659Z,1022.25
2022-08-09T06:01:48.667Z,1022.25
2022-08-09T06:02:48.793Z,1022.26
2022-08-09T06:03:58.168Z,1022.24
2022-08-09T06:04:48.665Z,1022.20
2022-08-09T06:05:58.179Z,1022.26
2022-08-09T06:06:49.725Z,1022.26
2022-08-09T06:08:05.013Z,1022.26
2022-08-09T06:08:52.747Z,1022.23
2022-08-09T06:10:02.107Z,1022.27
2022-08-09T06:10:48.696Z,1022.26
2022-08-09T06:11:57.481Z,1022.30
2022-08-09T06:12:57.812Z,1022.26
2022-08-09T06:13:48.697Z,1022.29
2022-08-09T06:14:48.754Z,1022.30
2022-08-09T06:15:51.381Z,1022.25
2022-08-09T06:16:52.493Z,1022.25
2022-08-09T06:17:48.708Z,1022.28
2022-08-09T06:18:48.724Z,1022.32
2022-08-09T06:19:48.725Z,1022.29
2022-08-09T06:20:54.303Z,1022.33
2022-08-09T06:21:50.548Z,1022.50
2022-08-09T06:22:48.729Z,1022.51
2022-08-09T06:23:57.167Z,1022.39
2022-08-09T06:24:48.948Z,1022.40
2022-08-09T06:25:48.805Z,1022.38
2022-08-09T06:26:48.744Z,1022.35
2022-08-09T06:27:51.763Z,1022.37
2022-08-09T06:28:48.747Z,1022.39
2022-08-09T06:30:04.447Z,1022.39
2022-08-09T06:30:48.761Z,1022.37
2022-08-09T06:32:18.394Z,1022.44
2022-08-09T06:33:13.606Z,1022.44
2022-08-09T06:33:53.349Z,1022.45
2022-08-09T06:34:52.979Z,1022.50
2022-08-09T06:35:56.953Z,1022.51
2022-08-09T06:36:48.804Z,1022.51
2022-08-09T06:37:53.011Z,1022.52
2022-08-09T06:38:50.109Z,1022.52
2022-08-09T06:39:59.917Z,1022.59
2022-08-09T06:40:48.852Z,1022.58
2022-08-09T06:42:07.854Z,1022.53
2022-08-09T06:42:48.796Z,1022.54
2022-08-09T06:43:48.810Z,1022.60
2022-08-09T06:44:51.908Z,1022.63
2022-08-09T06:46:07.661Z,1022.63
2022-08-09T06:46:49.803Z,1022.62
2022-08-09T06:47:48.819Z,1022.68
2022-08-09T06:48:48.824Z,1022.65
2022-08-09T06:50:14.551Z,1022.64
2022-08-09T06:50:48.827Z,1022.65
2022-08-09T06:51:48.836Z,1022.66
2022-08-09T06:52:49.112Z,1022.66
2022-08-09T06:53:49.967Z,1022.67
2022-08-09T06:54:48.844Z,1022.69
2022-08-09T06:55:48.846Z,1022.74
2022-08-09T06:56:48.865Z,1022.74
2022-08-09T06:58:02.695Z,1022.74
2022-08-09T07:00:48.792Z,1022.67
2022-08-09T07:00:51.956Z,1022.62
2022-08-09T07:01:54.255Z,1022.75
2022-08-09T07:02:48.943Z,1022.77
2022-08-09T07:03:52.538Z,1022.76
2022-08-09T07:04:48.916Z,1022.66
2022-08-09T07:05:53.851Z,1022.77
2022-08-09T07:06:53.297Z,1022.80
2022-08-09T07:08:00.602Z,1022.84
2022-08-09T07:08:49.742Z,1022.86
2022-08-09T07:09:55.305Z,1022.87
2022-08-09T07:10:48.964Z,1022.80
2022-08-09T07:11:52.251Z,1022.85
2022-08-09T07:12:57.102Z,1022.89
2022-08-09T07:14:05.028Z,1022.88
2022-08-09T07:14:51.355Z,1022.94
2022-08-09T07:16:35.228Z,1022.90
2022-08-09T07:16:53.548Z,1022.97
2022-08-09T07:17:52.859Z,1022.89
2022-08-09T07:18:50.048Z,1022.85
2022-08-09T07:19:50.749Z,1022.94
2022-08-09T07:20:49.070Z,1022.92
2022-08-09T07:21:55.935Z,1022.89
2022-08-09T07:22:53.482Z,1022.86
2022-08-09T07:23:57.866Z,1022.91
2022-08-09T07:24:49.570Z,1022.92
2022-08-09T07:25:52.550Z,1022.93
2022-08-09T07:26:50.863Z,1022.95
2022-08-09T07:27:53.565Z,1022.90
2022-08-09T07:29:08.967Z,1022.92
2022-08-09T07:29:49.179Z,1022.93
2022-08-09T07:30:49.191Z,1022.92
2022-08-09T07:31:56.428Z,1022.93
2022-08-09T07:33:52.574Z,1022.91
2022-08-09T07:34:43.367Z,1022.91
2022-08-09T07:35:53.656Z,1022.94
2022-08-09T07:36:43.375Z,1023.01
2022-08-09T07:37:45.825Z,1022.97
2022-08-09T07:38:49.296Z,1022.95
2022-08-09T07:39:43.454Z,1022.99
2022-08-09T07:41:08.149Z,1023.03
2022-08-09T07:41:43.431Z,1023.05
2022-08-09T07:42:43.452Z,1023.07
2022-08-09T07:43:56.089Z,1023.05
2022-08-09T07:44:51.899Z,1023.07
2022-08-09T07:45:43.486Z,1023.04
2022-08-09T07:46:43.503Z,1023.07
2022-08-09T07:48:00.467Z,1023.07
2022-08-09T07:48:43.520Z,1023.04
2022-08-09T07:50:05.334Z,1023.02
2022-08-09T07:50:43.620Z,1023.02
2022-08-09T07:52:04.744Z,1023.06
2022-08-09T07:52:43.592Z,1023.07
2022-08-09T07:54:05.957Z,1023.05
2022-08-09T07:54:43.607Z,1023.09
2022-08-09T07:56:03.499Z,1023.06
2022-08-09T07:56:48.756Z,1023.08
2022-08-09T07:57:47.019Z,1023.09
2022-08-09T07:58:43.683Z,1023.10
2022-08-09T07:59:45.798Z,1023.09
2022-08-09T08:00:58.897Z,1023.10
2022-08-09T08:01:43.808Z,1023.04
2022-08-09T08:02:43.751Z,1022.99
2022-08-09T08:03:43.770Z,1023.08
2022-08-09T08:04:49.020Z,1023.04
2022-08-09T08:05:54.065Z,1023.07
2022-08-09T08:06:55.650Z,1023.02
2022-08-09T08:09:02.015Z,1023.02
2022-08-09T08:09:03.830Z,1023.07
2022-08-09T08:09:45.298Z,1023.09
2022-08-09T08:10:48.674Z,1023.03
2022-08-09T08:12:10.670Z,1023.06
2022-08-09T08:12:45.491Z,1023.05
2022-08-09T08:13:56.403Z,1022.98
2022-08-09T08:14:43.920Z,1023.03
2022-08-09T08:15:43.932Z,1022.99
2022-08-09T08:17:00.372Z,1023.03
2022-08-09T08:17:53.507Z,1023.01
2022-08-09T08:18:43.983Z,1022.97
2022-08-09T08:19:44.528Z,1023.02
2022-08-09T08:20:44.045Z,1022.96
2022-08-09T08:21:52.546Z,1022.99
2022-08-09T08:22:44.031Z,1022.96
2022-08-09T08:23:44.046Z,1022.92
2022-08-09T08:24:49.017Z,1022.95
2022-08-09T08:25:46.405Z,1022.96
2022-08-09T08:26:55.801Z,1022.95
2022-08-09T08:27:44.132Z,1022.90
2022-08-09T08:28:44.115Z,1022.94
2022-08-09T08:29:48.697Z,1022.94
2022-08-09T08:30:44.123Z,1022.96
2022-08-09T08:32:03.121Z,1022.93
2022-08-09T08:32:52.634Z,1022.93
2022-08-09T08:33:52.849Z,1022.91
2022-08-09T08:34:44.171Z,1022.98
2022-08-09T08:35:58.598Z,1022.97
2022-08-09T08:36:44.209Z,1022.94
2022-08-09T08:37:59.685Z,1022.97
2022-08-09T08:38:44.222Z,1022.92
2022-08-09T08:39:44.646Z,1022.91
2022-08-09T08:40:44.262Z,1022.88
2022-08-09T08:41:52.025Z,1022.89
2022-08-09T08:42:47.406Z,1022.89
2022-08-09T08:43:44.289Z,1022.84
2022-08-09T08:44:44.358Z,1022.92
2022-08-09T08:45:51.391Z,1022.90
2022-08-09T08:47:02.710Z,1022.94
2022-08-09T08:47:44.751Z,1022.92
2022-08-09T08:48:51.853Z,1022.89
2022-08-09T08:49:48.622Z,1022.87
2022-08-09T08:50:45.494Z,1022.92
2022-08-09T08:52:00.262Z,1022.97
2022-08-09T08:52:58.546Z,1022.95
2022-08-09T08:54:03.565Z,1022.93
2022-08-09T08:54:44.431Z,1022.97
2022-08-09T08:55:44.405Z,1022.95
2022-08-09T08:56:44.386Z,1023.00
2022-08-09T08:57:56.478Z,1022.97
2022-08-09T08:58:46.511Z,1022.95
2022-08-09T08:59:46.841Z,1022.92
2022-08-09T09:00:45.582Z,1022.97
2022-08-09T09:01:44.942Z,1022.96
2022-08-09T09:02:44.546Z,1022.99
2022-08-09T09:03:44.452Z,1023.00
2022-08-09T09:04:52.541Z,1022.98
2022-08-09T09:05:59.838Z,1022.94
2022-08-09T09:06:44.455Z,1022.96
2022-08-09T09:07:44.693Z,1022.92
2022-08-09T09:08:44.469Z,1022.94
2022-08-09T09:10:01.518Z,1022.94
2022-08-09T09:10:44.489Z,1022.96
2022-08-09T09:11:44.505Z,1022.98
2022-08-09T09:12:44.502Z,1022.99
2022-08-09T09:13:56.830Z,1022.98
2022-08-09T09:14:44.520Z,1023.01
2022-08-09T09:15:49.266Z,1022.95
2022-08-09T09:16:44.548Z,1022.98
2022-08-09T09:17:49.563Z,1023.01
2022-08-09T09:18:48.713Z,1023.05
2022-08-09T09:19:44.554Z,1023.01
2022-08-09T09:20:44.558Z,1023.01
2022-08-09T09:21:46.773Z,1023.04
2022-08-09T09:22:44.570Z,1023.02
2022-08-09T09:23:49.695Z,1023.04
2022-08-09T09:24:44.608Z,1023.03
2022-08-09T09:26:01.412Z,1023.00
2022-08-09T09:26:44.826Z,1022.99
2022-08-09T09:28:06.518Z,1022.99
2022-08-09T09:29:04.377Z,1022.93
2022-08-09T09:30:26.105Z,1022.91
2022-08-09T09:30:44.633Z,1022.89
2022-08-09T09:32:03.931Z,1022.93
2022-08-09T09:32:44.650Z,1022.91
2022-08-09T09:33:45.227Z,1022.87
2022-08-09T09:34:44.823Z,1022.77
2022-08-09T09:35:47.995Z,1022.85
2022-08-09T09:36:52.983Z,1022.87
2022-08-09T09:37:44.689Z,1022.88
2022-08-09T09:38:44.696Z,1022.86
2022-08-09T09:39:56.751Z,1022.89
2022-08-09T09:40:46.207Z,1022.81
2022-08-09T09:41:49.690Z,1022.78
2022-08-09T09:42:46.443Z,1022.86
2022-08-09T09:44:11.519Z,1022.86
2022-08-09T09:44:44.735Z,1022.83
2022-08-09T09:46:39.581Z,1022.84
2022-08-09T09:46:52.209Z,1022.91
2022-08-09T09:47:56.203Z,1022.87
2022-08-09T09:48:44.761Z,1022.83
2022-08-09T09:50:15.293Z,1022.89
2022-08-09T09:50:51.181Z,1022.86
2022-08-09T09:51:44.778Z,1022.84
2022-08-09T09:52:54.011Z,1022.84
2022-08-09T09:53:57.984Z,1022.82
2022-08-09T09:54:48.732Z,1022.75
2022-08-09T09:55:44.810Z,1022.75
2022-08-09T09:56:53.298Z,1022.75
2022-08-09T09:58:03.254Z,1022.79
2022-08-09T09:58:44.827Z,1022.71
2022-08-09T09:59:44.839Z,1022.73
2022-08-09T10:00:52.655Z,1022.75
2022-08-09T10:01:44.847Z,1022.81
2022-08-09T10:02:44.854Z,1022.74
2022-08-09T10:03:57.216Z,1022.75
2022-08-09T10:04:44.868Z,1022.73
2022-08-09T10:06:03.976Z,1022.80
2022-08-09T10:06:47.119Z,1022.81
2022-08-09T10:08:10.705Z,1022.76
2022-08-09T10:08:57.245Z,1022.71
2022-08-09T10:09:48.716Z,1022.75
2022-08-09T10:10:44.925Z,1022.76
2022-08-09T10:12:00.915Z,1022.69
2022-08-09T10:12:51.829Z,1022.67
2022-08-09T10:13:45.387Z,1022.66
2022-08-09T10:14:48.576Z,1022.71
2022-08-09T10:16:09.661Z,1022.69
2022-08-09T10:16:58.263Z,1022.68
2022-08-09T10:17:56.171Z,1022.68
2022-08-09T10:18:51.162Z,1022.67
2022-08-09T10:19:45.783Z,1022.68
2022-08-09T10:20:45.586Z,1022.64
2022-08-09T10:21:44.980Z,1022.68
2022-08-09T10:22:45.347Z,1022.62
2022-08-09T10:23:44.998Z,1022.63
2022-08-09T10:24:45.072Z,1022.58
2022-08-09T10:26:06.488Z,1022.58
2022-08-09T10:26:46.787Z,1022.60
2022-08-09T10:27:57.975Z,1022.56
2022-08-09T10:28:45.578Z,1022.56
2022-08-09T10:30:43.846Z,1022.57
2022-08-09T10:32:37.387Z,1022.57
2022-08-09T10:32:45.168Z,1022.52
2022-08-09T10:34:11.215Z,1022.50
2022-08-09T10:34:45.067Z,1022.52
2022-08-09T10:35:45.092Z,1022.57
2022-08-09T10:36:45.269Z,1022.57
2022-08-09T10:37:45.088Z,1022.61
2022-08-09T10:38:56.281Z,1022.57
2022-08-09T10:39:48.910Z,1022.60
2022-08-09T10:40:50.153Z,1022.50
2022-08-09T10:41:45.120Z,1022.56
2022-08-09T10:42:45.811Z,1022.59
2022-08-09T10:43:47.113Z,1022.57
2022-08-09T10:44:45.137Z,1022.52
2022-08-09T10:45:58.580Z,1022.58
2022-08-09T10:46:55.144Z,1022.50
2022-08-09T10:48:16.385Z,1022.46
2022-08-09T10:48:45.178Z,1022.45
2022-08-09T10:49:51.401Z,1022.49
2022-08-09T10:50:45.187Z,1022.46
2022-08-09T10:51:45.193Z,1022.44
2022-08-09T10:52:45.190Z,1022.44
2022-08-09T10:53:46.832Z,1022.49
2022-08-09T10:54:45.204Z,1022.44
2022-08-09T10:55:58.046Z,1022.45
2022-08-09T10:56:45.240Z,1022.47
2022-08-09T10:57:45.221Z,1022.47
2022-08-09T10:58:45.241Z,1022.42
2022-08-09T10:59:57.470Z,1022.48
2022-08-09T11:00:50.866Z,1022.46
2022-08-09T11:03:14.334Z,1022.47
2022-08-09T11:03:15.335Z,1022.47
2022-08-09T11:03:49.932Z,1022.46
2022-08-09T11:04:56.350Z,1022.46
2022-08-09T11:06:00.619Z,1022.43
2022-08-09T11:06:45.280Z,1022.39
2022-08-09T11:07:57.893Z,1022.37
2022-08-09T11:08:47.806Z,1022.38
2022-08-09T11:09:48.229Z,1022.36
2022-08-09T11:10:53.314Z,1022.33
2022-08-09T11:11:51.865Z,1022.38
2022-08-09T11:12:45.339Z,1022.36
2022-08-09T11:13:50.174Z,1022.40
2022-08-09T11:14:45.334Z,1022.37
2022-08-09T11:15:50.719Z,1022.41
2022-08-09T11:16:47.184Z,1022.38
2022-08-09T11:17:45.410Z,1022.38
2022-08-09T11:18:45.360Z,1022.34
2022-08-09T11:20:11.866Z,1022.36
2022-08-09T11:20:45.361Z,1022.35
2022-08-09T11:21:45.348Z,1022.37
2022-08-09T11:22:45.349Z,1022.40
2022-08-09T11:23:49.240Z,1022.38
2022-08-09T11:24:45.370Z,1022.35
2022-08-09T11:25:48.374Z,1022.38
2022-08-09T11:26:52.215Z,1022.35
2022-08-09T11:28:03.858Z,1022.33
2022-08-09T11:28:54.151Z,1022.34
2022-08-09T11:30:04.532Z,1022.36
2022-08-09T11:30:48.094Z,1022.35
2022-08-09T11:31:49.830Z,1022.33
2022-08-09T11:32:45.413Z,1022.31
2022-08-09T11:33:45.481Z,1022.36
2022-08-09T11:34:45.428Z,1022.30
2022-08-09T11:35:49.125Z,1022.35
2022-08-09T11:36:45.433Z,1022.35
2022-08-09T11:37:49.802Z,1022.32
2022-08-09T11:38:45.539Z,1022.33
2022-08-09T11:39:45.465Z,1022.36
2022-08-09T11:40:45.463Z,1022.33
2022-08-09T11:41:45.468Z,1022.41
2022-08-09T11:42:45.483Z,1022.35
2022-08-09T11:43:45.521Z,1022.35
2022-08-09T11:44:45.484Z,1022.36
2022-08-09T11:45:45.498Z,1022.32
2022-08-09T11:46:45.496Z,1022.37
2022-08-09T11:47:45.505Z,1022.39
2022-08-09T11:48:45.518Z,1022.40
2022-08-09T11:50:53.453Z,1022.36
2022-08-09T11:50:53.815Z,1022.35
2022-08-09T11:53:04.205Z,1022.35
2022-08-09T11:53:04.336Z,1022.35
2022-08-09T11:53:59.742Z,1022.36
2022-08-09T11:54:45.553Z,1022.30
2022-08-09T11:55:53.392Z,1022.34
2022-08-09T11:56:48.004Z,1022.33
2022-08-09T11:58:00.734Z,1022.33
2022-08-09T11:58:48.069Z,1022.29
2022-08-09T11:59:45.614Z,1022.30
2022-08-09T12:00:45.606Z,1022.27
2022-08-09T12:02:18.186Z,1022.26
2022-08-09T12:02:51.147Z,1022.26
2022-08-09T12:03:56.769Z,1022.30
2022-08-09T12:04:45.695Z,1022.32
2022-08-09T12:05:47.217Z,1022.30
2022-08-09T12:06:55.512Z,1022.32
2022-08-09T12:07:45.623Z,1022.26
2022-08-09T12:08:45.640Z,1022.28
2022-08-09T12:09:50.838Z,1022.24
2022-08-09T12:10:48.331Z,1022.22
2022-08-09T12:12:03.092Z,1022.23
2022-08-09T12:12:45.659Z,1022.22
2022-08-09T12:14:08.377Z,1022.23
2022-08-09T12:15:04.085Z,1022.23
2022-08-09T12:15:49.709Z,1022.18
2022-08-09T12:16:45.690Z,1022.19
2022-08-09T12:17:50.188Z,1022.17
2022-08-09T12:18:53.758Z,1022.20
2022-08-09T12:19:45.705Z,1022.14
2022-08-09T12:20:46.568Z,1022.11
2022-08-09T12:21:50.785Z,1022.13
2022-08-09T12:22:45.744Z,1022.13
2022-08-09T12:23:56.164Z,1022.16
2022-08-09T12:24:45.733Z,1022.18
2022-08-09T12:25:49.235Z,1022.20
2022-08-09T12:29:00.082Z,1022.18
2022-08-09T12:29:11.489Z,1022.12
2022-08-09T12:29:11.904Z,1022.15
2022-08-09T12:29:54.571Z,1022.14
2022-08-09T12:30:45.783Z,1022.15
2022-08-09T12:32:02.291Z,1022.14
2022-08-09T12:32:48.432Z,1022.12
2022-08-09T12:33:58.541Z,1022.13
2022-08-09T12:34:45.830Z,1022.14
2022-08-09T12:35:45.806Z,1022.13
2022-08-09T12:36:45.810Z,1022.13
2022-08-09T12:37:50.080Z,1022.12
2022-08-09T12:38:45.847Z,1022.12
2022-08-09T12:39:45.904Z,1022.12
2022-08-09T12:40:46.281Z,1022.15
2022-08-09T12:41:45.851Z,1022.12
2022-08-09T12:42:45.939Z,1022.13